Time;durP1;ratioP1;P1;durP2;ratioP2;P2;SDS_P1;SDS_P2;PMS_P1;PMS_P2;Temp;Humidity;BMP_temperature;BMP_pressure;BME280_temperature;BME280_humidity;BME280_pressure;Samples;Min_cycle;Max_cycle;Signal;HPM_P1;HPM_P2
2023/08/28 00:02:01;;;;;;;;;;;;;;;;;;5008919;28;20045;-82
2023/08/28 00:04:27;;;;;;;0.10;0.10;;;;;;;14.77;nan;99960.88;5010573;28;19918;-83
2023/08/28 00:06:52;;;;;;;0.10;0.10;;;;;;;;;;5008921;28;20042;-82
2023/08/28 00:09:17;;;;;;;0.10;0.10;;;;;;;;;;5016700;28;20368;-82
2023/08/28 00:11:42;;;;;;;;;;;;;;;;;;5009951;28;20061;-82
2023/08/28 00:14:07;;;;;;;0.10;0.10;;;;;;;;;;5014750;28;19952;-83
2023/08/28 00:16:32;;;;;;;0.10;0.10;;;;;;;;;;5016107;28;20432;-82
2023/08/28 00:18:58;;;;;;;;;;;;;;;14.62;nan;99916.56;5018133;28;20042;-82
2023/08/28 00:21:23;;;;;;;;;;;;;;;;;;5011619;28;20279;-82
2023/08/28 00:23:48;;;;;;;;;;;;;;;14.57;nan;99912.84;5015309;28;19924;-83
2023/08/28 00:26:13;;;;;;;;;;;;;;;14.57;nan;99907.53;5017166;28;19914;-83
2023/08/28 00:28:38;;;;;;;;;;;;;;;;;;5018405;28;20128;-83
2023/08/28 00:31:04;;;;;;;;;;;;;;;14.52;nan;99885.97;5018644;28;19920;-83
2023/08/28 00:33:29;;;;;;;;;;;;;;;14.49;nan;99889.84;5021107;28;19913;-83
2023/08/28 00:35:54;;;;;;;;;;;;;;;14.48;nan;99882.03;5019506;28;19937;-83
2023/08/28 00:38:19;;;;;;;;;;;;;;;;;;5018811;28;19925;-83
2023/08/28 00:40:44;;;;;;;;;;;;;;;;;;5019121;28;19917;-83
2023/08/28 00:43:09;;;;;;;;;;;;;;;14.33;nan;99869.66;5009269;28;19925;-82
2023/08/28 00:45:34;;;;;;;;;;;;;;;;;;5008433;28;20372;-82
2023/08/28 00:48:00;;;;;;;;;;;;;;;14.33;nan;99876.81;5013654;28;19944;-82
2023/08/28 00:50:25;;;;;;;;;;;;;;;;;;5012282;28;19926;-82
2023/08/28 00:52:50;;;;;;;;;;;;;;;;;;5018160;28;20283;-83
2023/08/28 00:55:16;;;;;;;;;;;;;;;;;;5001707;28;19918;-82
2023/08/28 00:57:41;;;;;;;;;;;;;;;14.18;nan;99877.72;5016623;28;19924;-82
2023/08/28 01:00:06;;;;;;;;;;;;;;;;;;5013830;28;19965;-82
2023/08/28 01:02:31;;;;;;;;;;;;;;;;;;5005132;28;19921;-83
2023/08/28 01:04:58;;;;;;;0.20;0.20;;;;;;;;;;5008703;28;19920;-82
2023/08/28 01:07:25;;;;;;;0.20;0.20;;;;;;;;;;5004264;28;20416;-82
2023/08/28 01:10:00;;;;;;;0.10;0.10;;;;;;;;;;5012901;28;20393;-82
2023/08/28 01:12:26;;;;;;;0.10;0.10;;;;;;;;;;5009031;28;20750;-82
2023/08/28 01:15:11;;;;;;;0.10;0.10;;;;;;;;;;5014822;28;20472;-82
2023/08/28 01:17:38;;;;;;;0.10;0.10;;;;;;;;;;5015181;28;20408;-82
2023/08/28 01:20:04;;;;;;;0.10;0.10;;;;;;;-140.05;100.00;87211.78;5012660;28;20930;-82
2023/08/28 01:22:38;;;;;;;0.00;0.00;;;;;;;;;;5013482;28;20458;-82
2023/08/28 01:25:04;;;;;;;0.00;0.00;;;;;;;;;;5013750;28;20415;-83
2023/08/28 01:27:30;;;;;;;0.10;0.10;;;;;;;14.75;nan;99905.19;5016954;28;20457;-82
2023/08/28 01:30:15;;;;;;;0.10;0.10;;;;;;;;;;5011370;28;20046;-83
2023/08/28 01:32:41;;;;;;;0.10;0.10;;;;;;;;;;5007167;28;20190;-85
2023/08/28 01:35:12;;;;;;;0.10;0.10;;;;;;;14.31;nan;99914.22;5012814;28;20045;-84
2023/08/28 01:37:56;;;;;;;0.10;0.10;;;;;;;14.19;nan;99905.13;5012508;28;20381;-82
2023/08/28 01:40:24;;;;;;;0.10;0.10;;;;;;;;;;5011103;28;20408;-84
2023/08/28 01:42:50;;;;;;;0.20;0.20;;;;;;;;;;5018254;28;20037;-84
2023/08/28 01:45:15;;;;;;;0.10;0.10;;;;;;;;;;5019830;28;20061;-84
2023/08/28 01:47:41;;;;;;;0.10;0.10;;;;;;;;;;5017240;28;20133;-84
2023/08/28 01:50:06;;;;;;;;;;;;;;;;;;5007896;28;20110;-85
2023/08/28 01:52:31;;;;;;;0.20;0.20;;;;;;;;;;5007907;28;19913;-84
2023/08/28 01:54:56;;;;;;;0.10;0.10;;;;;;;;;;5004041;28;20985;-85
2023/08/28 01:57:21;;;;;;;0.10;0.10;;;;;;;;;;5020456;28;20037;-84
2023/08/28 01:59:46;;;;;;;;;;;;;;;;;;5020664;28;20041;-84
2023/08/28 02:02:11;;;;;;;0.10;0.10;;;;;;;;;;5018046;28;19918;-84
2023/08/28 02:04:37;;;;;;;0.20;0.20;;;;;;;;;;5006374;28;20088;-82
2023/08/28 02:07:02;;;;;;;0.10;0.10;;;;;;;;;;5003042;28;20504;-84
2023/08/28 02:09:27;;;;;;;0.10;0.10;;;;;;;;;;5001166;28;20038;-82
2023/08/28 02:11:52;;;;;;;0.20;0.20;;;;;;;;;;5007153;28;20614;-83
2023/08/28 02:14:17;;;;;;;0.10;0.10;;;;;;;13.90;nan;99991.13;5002620;28;20034;-83
2023/08/28 02:16:43;;;;;;;0.20;0.20;;;;;;;22.38;100.00;53996.00;5000797;28;20049;-82
2023/08/28 02:19:08;;;;;;;0.10;0.10;;;;;;;;;;5003781;28;20770;-82
2023/08/28 02:21:34;;;;;;;0.10;0.10;;;;;;;;;;5002923;28;20471;-82
2023/08/28 02:23:59;;;;;;;0.10;0.10;;;;;;;;;;5002293;28;20103;-83
2023/08/28 02:26:24;;;;;;;0.10;0.10;;;;;;;;;;4995688;28;20030;-84
2023/08/28 02:28:49;;;;;;;0.10;0.10;;;;;;;;;;5007525;28;20041;-83
2023/08/28 02:31:15;;;;;;;0.20;0.20;;;;;;;13.89;nan;99947.75;5009662;28;20077;-83
2023/08/28 02:33:40;;;;;;;0.13;0.13;;;;;;;;;;5006316;28;20050;-83
2023/08/28 02:36:05;;;;;;;0.17;0.17;;;;;;;13.79;nan;99997.72;4987903;28;20045;-82
2023/08/28 02:38:30;;;;;;;0.20;0.20;;;;;;;13.76;nan;99891.81;4993856;28;20101;-85
2023/08/28 02:41:04;;;;;;;0.20;0.20;;;;;;;;;;5004561;28;20046;-83
2023/08/28 02:43:29;;;;;;;0.20;0.20;;;;;;;;;;5014221;28;20089;-82
2023/08/28 02:45:54;;;;;;;0.20;0.20;;;;;;;;;;5009458;28;20499;-83
2023/08/28 02:48:19;;;;;;;0.10;0.10;;;;;;;13.69;nan;100032.56;5011143;28;20030;-82
2023/08/28 02:50:48;;;;;;;0.10;0.10;;;;;;;;;;5010708;28;20554;-83
2023/08/28 02:53:13;;;;;;;0.10;0.10;;;;;;;13.64;nan;99970.38;5009920;28;20617;-83
2023/08/28 02:55:39;;;;;;;0.20;0.20;;;;;;;;;;5005196;28;20397;-83
2023/08/28 02:58:05;;;;;;;0.10;0.10;;;;;;;;;;4998743;28;20629;-84
2023/08/28 03:00:30;;;;;;;0.10;0.10;;;;;;;13.73;nan;99932.03;5010409;28;20038;-84
2023/08/28 03:02:55;;;;;;;0.10;0.10;;;;;;;13.66;nan;99846.97;5002252;28;20052;-84
2023/08/28 03:05:20;;;;;;;0.17;0.17;;;;;;;;;;5006317;28;20690;-84
2023/08/28 03:07:45;;;;;;;0.20;0.20;;;;;;;13.63;nan;99857.13;4997329;28;20117;-85
2023/08/28 03:10:11;;;;;;;0.20;0.20;;;;;;;;;;5005855;28;20031;-83
2023/08/28 03:12:36;;;;;;;0.13;0.13;;;;;;;13.70;nan;99980.22;5002577;28;20061;-86
2023/08/28 03:15:01;;;;;;;0.20;0.20;;;;;;;;;;5008418;28;20503;-83
2023/08/28 03:17:26;;;;;;;0.20;0.20;;;;;;;;;;5016108;28;20373;-83
2023/08/28 03:19:52;;;;;;;0.20;0.20;;;;;;;;;;4997742;28;20534;-83
2023/08/28 03:22:17;;;;;;;0.20;0.20;;;;;;;;;;4994609;28;20104;-84
2023/08/28 03:24:42;;;;;;;0.20;0.20;;;;;;;;;;4989095;28;20050;-84
2023/08/28 03:27:07;;;;;;;0.20;0.20;;;;;;;;;;5000782;28;20073;-84
2023/08/28 03:29:32;;;;;;;0.10;0.10;;;;;;;;;;5002731;28;20050;-84
2023/08/28 03:31:57;;;;;;;0.20;0.20;;;;;;;;;;4997336;28;20073;-84
2023/08/28 03:34:23;;;;;;;0.20;0.20;;;;;;;;;;4997648;28;20396;-84
2023/08/28 03:36:48;;;;;;;0.20;0.20;;;;;;;;;;4996515;28;20318;-85
2023/08/28 03:39:13;;;;;;;0.20;0.20;;;;;;;;;;4995853;28;20041;-84
2023/08/28 03:41:38;;;;;;;0.13;0.13;;;;;;;;;;4998371;28;20512;-84
2023/08/28 03:44:03;;;;;;;0.10;0.10;;;;;;;;;;4997569;28;20040;-84
2023/08/28 03:46:28;;;;;;;0.10;0.10;;;;;;;13.41;nan;99923.47;4995786;28;20033;-84
2023/08/28 03:48:54;;;;;;;0.10;0.10;;;;;;;;;;4993809;28;20042;-85
2023/08/28 03:51:19;;;;;;;0.20;0.20;;;;;;;;;;4993874;28;20377;-83
2023/08/28 03:53:44;;;;;;;0.20;0.20;;;;;;;;;;4994039;28;20035;-83
2023/08/28 03:56:09;;;;;;;0.20;0.20;;;;;;;;;;4994483;28;20038;-84
2023/08/28 03:58:35;;;;;;;0.20;0.20;;;;;;;;;;4994532;28;20054;-84
2023/08/28 04:01:00;;;;;;;0.20;0.20;;;;;;;;;;4993047;28;20505;-83
2023/08/28 04:03:25;;;;;;;0.20;0.20;;;;;;;;;;4995240;28;20336;-84
2023/08/28 04:05:52;;;;;;;0.10;0.10;;;;;;;;;;4997654;28;20177;-83
2023/08/28 04:08:19;;;;;;;0.20;0.20;;;;;;;;;;4997864;28;20028;-84
2023/08/28 04:10:44;;;;;;;0.10;0.10;;;;;;;;;;4995107;28;20081;-84
2023/08/28 04:13:09;;;;;;;0.10;0.10;;;;;;;;;;4986345;28;20113;-83
2023/08/28 04:15:34;;;;;;;0.20;0.20;;;;;;;;;;4978606;28;20038;-86
2023/08/28 04:17:59;;;;;;;0.17;0.17;;;;;;;;;;4977161;28;20031;-84
2023/08/28 04:20:25;;;;;;;0.20;0.20;;;;;;;;;;4983284;28;20047;-85
2023/08/28 04:22:50;;;;;;;0.10;0.10;;;;;;;;;;4994787;28;20123;-85
2023/08/28 04:25:15;;;;;;;0.20;0.20;;;;;;;;;;5006276;28;20624;-84
2023/08/28 04:27:41;;;;;;;0.20;0.20;;;;;;;13.49;nan;99861.47;4993997;28;20302;-84
2023/08/28 04:30:07;;;;;;;0.20;0.20;;;;;;;;;;4985192;28;20316;-84
2023/08/28 04:32:32;;;;;;;0.20;0.20;;;;;;;;;;4992546;28;20039;-84
2023/08/28 04:34:58;;;;;;;0.10;0.10;;;;;;;;;;4983694;28;20035;-83
2023/08/28 04:37:26;;;;;;;0.20;0.20;;;;;;;;;;4991918;28;20042;-83
2023/08/28 04:39:51;;;;;;;0.20;0.20;;;;;;;;;;4993080;28;20042;-84
2023/08/28 04:42:17;;;;;;;0.20;0.20;;;;;;;;;;4987635;28;20122;-83
2023/08/28 04:44:42;;;;;;;0.20;0.20;;;;;;;;;;4975623;28;20045;-84
2023/08/28 04:47:07;;;;;;;0.20;0.20;;;;;;;13.65;nan;99834.66;4974165;28;20535;-83
2023/08/28 04:49:32;;;;;;;0.20;0.20;;;;;;;;;;4985258;28;20034;-84
2023/08/28 04:51:58;;;;;;;0.20;0.20;;;;;;;;;;4993216;28;20047;-85
2023/08/28 04:54:23;;;;;;;0.20;0.20;;;;;;;;;;4990786;28;20500;-83
2023/08/28 04:56:48;;;;;;;0.20;0.20;;;;;;;13.71;nan;99997.84;4989801;28;20046;-85
2023/08/28 04:59:14;;;;;;;0.20;0.20;;;;;;;;;;4974772;28;20043;-84
2023/08/28 05:01:39;;;;;;;0.17;0.17;;;;;;;;;;4987448;28;20042;-83
2023/08/28 05:04:04;;;;;;;0.20;0.20;;;;;;;;;;4980626;28;20045;-85
2023/08/28 05:06:30;;;;;;;0.20;0.20;;;;;;;13.75;nan;99968.06;4984808;28;20045;-84
2023/08/28 05:08:55;;;;;;;0.15;0.15;;;;;;;13.75;nan;99999.09;4982396;28;20046;-84
2023/08/28 05:11:20;;;;;;;0.10;0.10;;;;;;;;;;4995202;28;20038;-86
2023/08/28 05:13:45;;;;;;;0.20;0.20;;;;;;;;;;4999411;28;20070;-85
2023/08/28 05:16:11;;;;;;;0.20;0.20;;;;;;;;;;4984736;28;20102;-85
2023/08/28 05:18:36;;;;;;;0.10;0.10;;;;;;;;;;4993757;28;20035;-85
2023/08/28 05:21:01;;;;;;;0.17;0.17;;;;;;;;;;4979955;28;20062;-84
2023/08/28 05:23:26;;;;;;;0.10;0.10;;;;;;;;;;4982415;28;20270;-84
2023/08/28 05:25:52;;;;;;;0.10;0.10;;;;;;;;;;4992190;28;20076;-84
2023/08/28 05:28:17;;;;;;;0.20;0.20;;;;;;;13.95;nan;99831.91;4993478;28;20358;-84
2023/08/28 05:30:42;;;;;;;0.20;0.20;;;;;;;;;;4988202;28;20026;-84
2023/08/28 05:33:08;;;;;;;0.10;0.10;;;;;;;;;;4995120;28;20093;-87
2023/08/28 05:35:33;;;;;;;0.20;0.20;;;;;;;;;;4996839;28;20030;-84
2023/08/28 05:37:58;;;;;;;0.20;0.20;;;;;;;14.08;nan;99946.31;4996661;28;20508;-86
2023/08/28 05:40:23;;;;;;;0.20;0.20;;;;;;;;;;4996102;28;20076;-84
2023/08/28 05:42:48;;;;;;;0.20;0.20;;;;;;;;;;4996736;28;20022;-84
2023/08/28 05:45:13;;;;;;;0.20;0.20;;;;;;;;;;4997709;28;20034;-85
2023/08/28 05:47:40;;;;;;;0.10;0.10;;;;;;;14.27;nan;99976.78;4992506;28;20047;-83
2023/08/28 05:50:05;;;;;;;0.20;0.20;;;;;;;;;;4980165;28;20035;-84
2023/08/28 05:52:30;;;;;;;0.10;0.10;;;;;;;;;;4995091;28;20026;-83
2023/08/28 05:54:55;;;;;;;0.10;0.10;;;;;;;;;;4993567;28;20050;-83
2023/08/28 05:57:23;;;;;;;0.20;0.20;;;;;;;14.50;nan;99848.91;4990116;28;20534;-84
2023/08/28 05:59:48;;;;;;;0.10;0.10;;;;;;;14.48;nan;99946.72;4995215;28;20030;-87
2023/08/28 06:02:14;;;;;;;0.10;0.10;;;;;;;;;;4993748;28;20037;-84
2023/08/28 06:04:39;;;;;;;0.10;0.10;;;;;;;;;;4990357;28;20046;-84
2023/08/28 06:07:04;;;;;;;0.10;0.10;;;;;;;;;;4975881;28;20579;-85
2023/08/28 06:09:29;;;;;;;0.17;0.17;;;;;;;;;;4977150;28;20118;-85
2023/08/28 06:11:55;;;;;;;0.10;0.10;;;;;;;;;;4993724;28;20042;-85
2023/08/28 06:14:20;;;;;;;0.10;0.10;;;;;;;;;;4988148;28;20034;-85
2023/08/28 06:16:45;;;;;;;0.10;0.10;;;;;;;;;;4989687;28;20046;-85
2023/08/28 06:19:10;;;;;;;0.10;0.10;;;;;;;;;;4994221;28;20042;-84
2023/08/28 06:21:35;;;;;;;0.10;0.10;;;;;;;;;;4998657;28;20400;-86
2023/08/28 06:24:01;;;;;;;0.10;0.10;;;;;;;;;;4988472;28;20030;-85
2023/08/28 06:26:26;;;;;;;0.10;0.10;;;;;;;;;;4998474;28;20030;-85
2023/08/28 06:28:51;;;;;;;0.10;0.10;;;;;;;14.41;nan;99893.44;4996626;28;20038;-85
2023/08/28 06:31:17;;;;;;;0.17;0.17;;;;;;;;;;4991860;28;20432;-85
2023/08/28 06:33:42;;;;;;;0.10;0.10;;;;;;;14.42;nan;100012.16;4997333;28;20034;-86
2023/08/28 06:36:07;;;;;;;0.10;0.10;;;;;;;;;;4995998;28;20038;-85
2023/08/28 06:38:33;;;;;;;0.10;0.10;;;;;;;;;;4992784;28;20320;-84
2023/08/28 06:41:00;;;;;;;0.20;0.20;;;;;;;;;;4976480;28;20039;-84
2023/08/28 06:43:26;;;;;;;0.10;0.10;;;;;;;14.53;nan;99843.19;4996514;28;20030;-83
2023/08/28 06:45:51;;;;;;;0.20;0.20;;;;;;;;;;4996907;28;20524;-83
2023/08/28 06:48:16;;;;;;;0.10;0.10;;;;;;;;;;4997719;28;20273;-83
2023/08/28 06:50:41;;;;;;;0.10;0.10;;;;;;;;;;4996579;28;20045;-83
2023/08/28 06:53:06;;;;;;;0.10;0.10;;;;;;;;;;4998092;28;20468;-83
2023/08/28 06:55:32;;;;;;;0.10;0.10;;;;;;;;;;4990011;28;20043;-83
2023/08/28 06:57:58;;;;;;;0.10;0.10;;;;;;;14.81;nan;99829.88;4982326;28;20069;-83
2023/08/28 07:00:23;;;;;;;0.10;0.10;;;;;;;;;;4989419;28;20042;-83
2023/08/28 07:02:48;;;;;;;0.10;0.10;;;;;;;;;;4977465;28;20043;-82
2023/08/28 07:05:14;;;;;;;;;;;;;;;;;;4976143;28;20039;-83
2023/08/28 07:07:39;;;;;;;0.20;0.20;;;;;;;;;;4976121;28;19929;-83
2023/08/28 07:10:05;;;;;;;0.15;0.15;;;;;;;;;;4977817;28;20035;-83
2023/08/28 07:12:30;;;;;;;0.17;0.17;;;;;;;;;;4981372;28;20089;-83
2023/08/28 07:15:05;;;;;;;0.10;0.10;;;;;;;;;;4991119;28;20112;-82
2023/08/28 07:17:31;;;;;;;0.10;0.10;;;;;;;;;;4992759;28;20030;-83
2023/08/28 07:19:56;;;;;;;0.10;0.10;;;;;;;;;;4982893;28;20480;-83
2023/08/28 07:22:21;;;;;;;0.10;0.10;;;;;;;;;;4980858;28;20085;-82
2023/08/28 07:24:46;;;;;;;0.10;0.10;;;;;;;15.24;nan;99815.53;4984759;28;20488;-82
2023/08/28 07:27:11;;;;;;;0.10;0.10;;;;;;;;;;4984957;28;20045;-83
2023/08/28 07:29:36;;;;;;;0.10;0.10;;;;;;;;;;4983812;28;20419;-82
2023/08/28 07:32:02;;;;;;;0.10;0.10;;;;;;;15.25;nan;99809.19;4993238;28;20038;-79
2023/08/28 07:34:27;;;;;;;0.10;0.10;;;;;;;;;;4979033;28;20108;-79
2023/08/28 07:36:52;;;;;;;0.10;0.10;;;;;;;;;;4979767;28;20043;-78
2023/08/28 07:39:18;;;;;;;0.10;0.10;;;;;;;15.38;nan;99809.25;4986188;28;20038;-78
2023/08/28 07:41:43;;;;;;;0.10;0.10;;;;;;;;;;4984551;28;20042;-79
2023/08/28 07:44:08;;;;;;;0.10;0.10;;;;;;;15.35;nan;99804.31;4981658;28;20294;-79
2023/08/28 07:46:33;;;;;;;0.10;0.10;;;;;;;15.31;nan;99812.91;4983851;28;20504;-79
2023/08/28 07:48:58;;;;;;;0.10;0.10;;;;;;;15.35;nan;99814.13;4984986;28;20041;-79
2023/08/28 07:51:24;;;;;;;0.10;0.10;;;;;;;;;;4985461;28;20122;-79
2023/08/28 07:53:49;;;;;;;0.10;0.10;;;;;;;;;;4983754;28;20039;-78
2023/08/28 07:56:14;;;;;;;0.10;0.10;;;;;;;;;;4988379;28;20042;-78
2023/08/28 07:58:40;;;;;;;0.10;0.10;;;;;;;16.05;nan;99823.53;4994865;28;20125;-79
2023/08/28 08:01:05;;;;;;;0.10;0.10;;;;;;;;;;4988562;28;20045;-78
2023/08/28 08:03:31;;;;;;;0.10;0.10;;;;;;;-145.28;100.00;87210.38;4992189;28;20030;-78
2023/08/28 08:05:56;;;;;;;0.10;0.10;;;;;;;16.23;nan;99854.09;4974943;28;20041;-78
2023/08/28 08:08:22;;;;;;;0.10;0.10;;;;;;;;;;4974275;28;20520;-79
2023/08/28 08:10:47;;;;;;;0.10;0.10;;;;;;;;;;4980147;28;20035;-78
2023/08/28 08:13:12;;;;;;;0.10;0.10;;;;;;;;;;4989478;28;20042;-78
2023/08/28 08:15:37;;;;;;;0.10;0.10;;;;;;;;;;4985810;28;20452;-78
2023/08/28 08:18:03;;;;;;;0.10;0.10;;;;;;;;;;4997824;28;20089;-79
2023/08/28 08:20:28;;;;;;;;;;;;;;;16.43;nan;99816.75;4995569;28;20034;-79
2023/08/28 08:22:53;;;;;;;0.10;0.10;;;;;;;;;;4995503;28;19922;-79
2023/08/28 08:25:18;;;;;;;0.10;0.10;;;;;;;;;;5016200;28;20292;-79
2023/08/28 08:27:44;;;;;;;0.10;0.10;;;;;;;16.42;nan;99820.41;5027770;28;20280;-78
2023/08/28 08:30:10;;;;;;;0.10;0.10;;;;;;;;;;5029948;28;20034;-78
2023/08/28 08:32:35;;;;;;;0.10;0.10;;;;;;;;;;5016773;28;20034;-80
2023/08/28 08:35:00;;;;;;;0.10;0.10;;;;;;;16.21;nan;99824.13;5011847;28;20084;-78
2023/08/28 08:37:26;;;;;;;0.10;0.10;;;;;;;;;;5008324;28;20388;-78
2023/08/28 08:39:51;;;;;;;0.10;0.10;;;;;;;;;;5004110;28;20121;-79
2023/08/28 08:42:17;;;;;;;0.10;0.10;;;;;;;;;;5014927;28;20537;-79
2023/08/28 08:44:42;;;;;;;0.10;0.10;;;;;;;;;;5010192;28;20050;-79
2023/08/28 08:47:07;;;;;;;0.10;0.10;;;;;;;16.14;nan;99792.13;5009790;28;20134;-78
2023/08/28 08:49:33;;;;;;;0.10;0.10;;;;;;;;;;5011012;28;20096;-78
2023/08/28 08:52:05;;;;;;;0.10;0.10;;;;;;;16.16;nan;99838.09;5004081;28;20390;-79
2023/08/28 08:54:37;;;;;;;0.10;0.10;;;;;;;16.05;nan;99833.38;5009464;28;20050;-79
2023/08/28 08:57:08;;;;;;;0.10;0.10;;;;;;;16.08;nan;99841.78;5012530;28;20040;-79
2023/08/28 08:59:34;;;;;;;0.10;0.10;;;;;;;16.18;nan;99857.38;5013122;28;20139;-79
2023/08/28 09:02:02;;;;;;;0.10;0.10;;;;;;;;;;4988397;28;20034;-79
2023/08/28 09:04:28;;;;;;;0.10;0.10;;;;;;;16.06;nan;99837.66;4989793;28;20038;-79
2023/08/28 09:06:55;;;;;;;0.10;0.10;;;;;;;16.00;nan;99908.66;4990180;28;20554;-79
2023/08/28 09:09:21;;;;;;;0.10;0.10;;;;;;;;;;4991014;28;20102;-78
2023/08/28 09:11:46;;;;;;;0.05;0.05;;;;;;;;;;5010344;28;20140;-78
2023/08/28 09:14:12;;;;;;;0.10;0.10;;;;;;;16.16;nan;100007.97;5008644;28;20542;-78
2023/08/28 09:16:38;;;;;;;0.10;0.10;;;;;;;;;;5006389;28;20103;-79
2023/08/28 09:19:03;;;;;;;0.10;0.10;;;;;;;;;;5011245;28;20042;-79
2023/08/28 09:21:35;;;;;;;0.10;0.10;;;;;;;16.10;nan;99857.56;5011027;28;20292;-79
2023/08/28 09:24:22;;;;;;;0.10;0.10;;;;;;;16.14;nan;99877.50;5007101;28;20396;-79
2023/08/28 09:26:52;;;;;;;0.10;0.10;;;;;;;;;;4997559;28;20042;-79
2023/08/28 09:29:20;;;;;;;0.10;0.10;;;;;;;;;;5010916;28;20064;-78
2023/08/28 09:31:46;;;;;;;0.10;0.10;;;;;;;16.17;nan;99871.75;5009223;28;20405;-79
2023/08/28 09:34:12;;;;;;;0.10;0.10;;;;;;;;;;5007762;28;20026;-78
2023/08/28 09:36:40;;;;;;;0.10;0.10;;;;;;;16.31;nan;99884.06;5008608;28;20037;-78
2023/08/28 09:39:23;;;;;;;0.10;0.10;;;;;;;;;;5006974;28;20122;-79
2023/08/28 09:41:49;;;;;;;0.10;0.10;;;;;;;16.43;nan;99872.78;5006981;28;20553;-78
2023/08/28 09:44:15;;;;;;;0.10;0.10;;;;;;;;;;5005923;28;20047;-78
2023/08/28 09:46:42;;;;;;;0.10;0.10;;;;;;;16.76;nan;99897.59;5001440;28;20417;-79
2023/08/28 09:49:08;;;;;;;0.10;0.10;;;;;;;;;;5009519;28;20026;-78
2023/08/28 09:51:39;;;;;;;0.10;0.10;;;;;;;17.21;nan;99910.25;5011509;28;20400;-79
2023/08/28 09:54:05;;;;;;;0.10;0.10;;;;;;;17.37;nan;99909.78;5010656;28;20041;-78
2023/08/28 09:56:31;;;;;;;0.10;0.10;;;;;;;;;;5002227;28;20034;-79
2023/08/28 09:59:01;;;;;;;0.10;0.10;;;;;;;17.96;nan;99918.56;5006856;28;20050;-79
2023/08/28 10:01:27;;;;;;;0.10;0.10;;;;;;;;;;5008480;28;20076;-79
2023/08/28 10:03:53;;;;;;;;;;;;;;;18.50;nan;99918.22;5010436;28;20053;-79
2023/08/28 10:06:19;;;;;;;;;;;;;;;18.57;nan;99914.44;5005035;28;19980;-79
2023/08/28 10:08:45;;;;;;;;;;;;;;;18.76;nan;99917.13;5004654;28;19971;-79
2023/08/28 10:11:11;;;;;;;;;;;;;;;18.98;nan;99899.66;5008587;28;19917;-79
2023/08/28 10:13:36;;;;;;;;;;;;;;;19.05;nan;99916.47;5010589;28;19967;-82
2023/08/28 10:16:06;;;;;;;;;;;;;;;19.00;nan;99897.56;5006695;28;20004;-85
2023/08/28 10:18:38;;;;;;;;;;;;;;;18.89;nan;99896.44;5011662;28;19917;-85
2023/08/28 10:21:04;;;;;;;;;;;;;;;;;;5007362;28;20124;-85
2023/08/28 10:23:29;;;;;;;;;;;;;;;19.69;nan;99924.22;5007640;28;20017;-85
2023/08/28 10:25:55;;;;;;;;;;;;;;;20.11;nan;99925.06;5014355;28;19976;-85
2023/08/28 10:28:21;;;;;;;;;;;;;;;20.35;nan;99909.00;5012969;28;19918;-85
2023/08/28 10:30:48;;;;;;;;;;;;;;;20.36;nan;99890.00;5013254;28;19970;-85
2023/08/28 10:33:14;;;;;;;;;;;;;;;20.29;nan;99897.34;5013394;28;19913;-85
2023/08/28 10:35:41;;;;;;;;;;;;;;;20.11;nan;99898.22;5013544;28;19924;-85
2023/08/28 10:38:06;;;;;;;;;;;;;;;19.93;nan;99885.69;5007404;28;19934;-86
2023/08/28 10:40:32;;;;;;;;;;;;;;;;;;5010510;28;20353;-85
2023/08/28 10:42:57;;;;;;;;;;;;;;;20.06;nan;99857.84;5011474;28;19925;-85
2023/08/28 10:45:22;;;;;;;0.03;0.03;;;;;;;;;;5001792;28;19918;-85
2023/08/28 10:47:49;;;;;;;0.10;0.10;;;;;;;;;;5002772;28;20035;-85
2023/08/28 10:50:14;;;;;;;0.10;0.10;;;;;;;;;;5012861;28;20437;-85
2023/08/28 10:52:39;;;;;;;;;;;;;;;20.00;nan;99866.81;4998082;28;20038;-84
2023/08/28 10:55:06;;;;;;;;;;;;;;;20.06;nan;99855.16;4987488;28;19957;-85
2023/08/28 10:57:31;;;;;;;0.10;0.10;;;;;;;;;;4985501;28;19924;-85
2023/08/28 11:00:00;;;;;;;47.85;30.33;;;;;;;;;;4990983;28;20415;-85
2023/08/28 11:02:25;;;;;;;0.10;0.10;;;;;;;;;;4990821;28;20464;-85
2023/08/28 11:04:50;;;;;;;0.10;0.10;;;;;;;;;;4992605;28;20059;-85
2023/08/28 11:07:22;;;;;;;0.00;0.00;;;;;;;20.12;nan;99830.09;4996274;28;21081;-86
2023/08/28 11:09:47;;;;;;;;;;;;;;;;;;4986256;28;20678;-86
2023/08/28 11:12:12;;;;;;;;;;;;;;;20.22;nan;99850.97;4983379;28;20322;-86
2023/08/28 11:14:39;;;;;;;0.10;0.10;;;;;;;20.45;nan;99839.44;4983226;28;19917;-88
2023/08/28 11:17:10;;;;;;;0.10;0.10;;;;;;;20.58;nan;99838.41;4986069;28;20400;-87
2023/08/28 11:19:57;;;;;;;;;;;;;;;20.87;nan;99852.75;4993783;28;20065;-87
2023/08/28 11:22:36;;;;;;;0.10;0.10;;;;;;;21.44;nan;99905.03;5001570;28;19914;-86
2023/08/28 11:25:07;;;;;;;0.10;0.10;;;;;;;21.76;nan;99902.69;4988738;28;20045;-87
2023/08/28 11:27:49;;;;;;;;;;;;;;;22.54;nan;99849.06;4981827;28;20133;-87
2023/08/28 11:30:15;;;;;;;0.10;0.10;;;;;;;;;;4989340;28;19928;-86
2023/08/28 11:32:42;;;;;;;0.00;0.00;;;;;;;;;;4993213;28;20468;-86
2023/08/28 11:35:13;;;;;;;1.10;1.00;;;;;;;;;;4985455;28;20423;-86
2023/08/28 11:37:40;;;;;;;0.73;0.70;;;;;;;23.66;nan;99844.28;4981027;28;20412;-87
2023/08/28 11:40:08;;;;;;;0.08;0.08;;;;;;;24.56;nan;99847.22;4978431;28;20520;-88
2023/08/28 11:42:33;;;;;;;0.00;0.00;;;;;;;;;;4993353;28;20034;-88
2023/08/28 11:44:59;;;;;;;0.00;0.00;;;;;;;24.86;nan;99843.03;4991134;28;20112;-87
2023/08/28 11:47:25;;;;;;;0.00;0.00;;;;;;;24.79;nan;99784.63;4992625;28;20036;-89
2023/08/28 11:49:51;;;;;;;;;;;;;;;24.24;nan;99828.31;4994366;28;20043;-89
2023/08/28 11:52:17;;;;;;;;;;;;;;;24.33;nan;99840.28;4984875;28;19924;-86
2023/08/28 11:54:42;;;;;;;;;;;;;;;24.41;nan;99830.84;4994556;28;20012;-86
2023/08/28 11:57:07;;;;;;;;;;;;;;;24.23;nan;99818.59;4992919;28;19917;-87
2023/08/28 11:59:33;;;;;;;0.00;0.00;;;;;;;;;;4985109;28;19917;-86
2023/08/28 12:01:59;;;;;;;;;;;;;;;23.99;nan;99827.06;4987860;28;20039;-87
2023/08/28 12:04:24;;;;;;;;;;;;;;;24.37;nan;99817.06;4991102;28;19918;-86
2023/08/28 12:06:49;;;;;;;0.00;0.00;;;;;;;;;;4987601;28;20395;-88
2023/08/28 12:09:15;;;;;;;0.00;0.00;;;;;;;;;;4986054;28;20046;-87
2023/08/28 12:11:41;;;;;;;0.10;0.10;;;;;;;24.33;nan;99864.59;4986928;28;20512;-87
2023/08/28 12:14:16;;;;;;;0.00;0.00;;;;;;;24.50;nan;99838.28;4988347;28;20113;-86
2023/08/28 12:16:42;;;;;;;0.00;0.00;;;;;;;24.42;nan;99825.22;4983727;28;20109;-87
2023/08/28 12:19:07;;;;;;;0.00;0.00;;;;;;;;;;4996946;28;20118;-88
2023/08/28 12:21:34;;;;;;;0.00;0.00;;;;;;;24.45;nan;99911.16;4993010;28;20043;-88
2023/08/28 12:24:00;;;;;;;0.00;0.00;;;;;;;24.54;nan;99827.75;4988608;28;20026;-89
2023/08/28 12:26:25;;;;;;;0.00;0.00;;;;;;;24.23;nan;99808.59;4989377;28;20091;-88
2023/08/28 12:28:52;;;;;;;0.00;0.00;;;;;;;23.84;nan;99862.03;4989924;28;20073;-88
2023/08/28 12:31:27;;;;;;;0.00;0.00;;;;;;;24.09;nan;99854.13;4996469;28;20165;-89
2023/08/28 12:33:54;;;;;;;0.00;0.00;;;;;;;24.07;nan;99801.44;4993216;28;20035;-88
2023/08/28 12:36:19;;;;;;;0.00;0.00;;;;;;;;;;4985082;28;20081;-89
2023/08/28 12:38:48;;;;;;;0.00;0.00;;;;;;;;;;4989916;28;20406;-88
2023/08/28 12:41:14;;;;;;;0.00;0.00;;;;;;;23.99;nan;99805.44;4992093;28;20429;-87
2023/08/28 12:43:40;;;;;;;0.00;0.00;;;;;;;;;;4983290;28;20038;-87
2023/08/28 12:46:05;;;;;;;0.80;0.40;;;;;;;24.34;nan;99817.59;4991588;28;20493;-87
2023/08/28 12:48:30;;;;;;;0.00;0.00;;;;;;;;;;4992030;28;20038;-87
2023/08/28 12:50:55;;;;;;;;;;;;;;;24.07;nan;99813.06;4986284;28;20049;-88
2023/08/28 12:53:21;;;;;;;;;;;;;;;23.78;nan;99815.25;4992683;28;20302;-88
2023/08/28 12:55:46;;;;;;;;;;;;;;;23.56;nan;99828.78;4991831;28;19968;-89
2023/08/28 12:58:12;;;;;;;;;;;;;;;23.37;nan;99830.22;4991108;28;19921;-89
2023/08/28 13:00:37;;;;;;;;;;;;;;;23.39;nan;99838.88;4992141;28;19921;-89
2023/08/28 13:03:03;;;;;;;0.10;0.10;;;;;;;;;;4991164;28;19913;-88
2023/08/28 13:05:28;;;;;;;0.00;0.00;;;;;;;22.66;nan;99818.25;4987773;28;20559;-88
2023/08/28 13:07:53;;;;;;;;;;;;;;;22.72;nan;99839.91;4992260;28;20125;-88
2023/08/28 13:10:19;;;;;;;;;;;;;;;22.55;nan;99851.53;4991440;28;20327;-89
2023/08/28 13:12:44;;;;;;;;;;;;;;;22.44;nan;99853.25;4991761;28;20049;-88
2023/08/28 13:15:10;;;;;;;;;;;;;;;22.36;nan;99858.25;4991594;28;19921;-88
2023/08/28 13:17:35;;;;;;;;;;;;;;;22.22;nan;99849.69;4978137;28;19921;-88
2023/08/28 13:20:00;;;;;;;;;;;;;;;22.21;nan;99850.72;4990879;28;20005;-88
2023/08/28 13:22:25;;;;;;;;;;;;;;;22.24;nan;99856.47;4991081;28;19914;-88
2023/08/28 13:24:50;;;;;;;0.00;0.00;;;;;;;;;;4990521;28;20379;-89
2023/08/28 13:27:15;;;;;;;;;;;;;;;22.03;nan;99843.69;4990670;28;20488;-88
2023/08/28 13:29:41;;;;;;;;;;;;;;;22.17;nan;99847.69;4992398;28;20161;-88
2023/08/28 13:32:06;;;;;;;0.10;0.10;;;;;;;;;;4989634;28;20363;-88
2023/08/28 13:34:31;;;;;;;0.10;0.10;;;;;;;;;;4990546;28;20276;-88
2023/08/28 13:36:56;;;;;;;;;;;;;;;22.59;nan;99857.22;4990577;28;20034;-88
2023/08/28 13:39:21;;;;;;;;;;;;;;;22.62;nan;99860.25;4977139;28;19914;-89